Pilger, NE (68768)

01:10 AM CDT del 25 Agosto 2016 (GMT -0500)
1 mile South of Wayne | | Change Station

Alt. 1463 ft 42.22 °N, 97.01 °W | Updated 31 seconds ago

Clear
Sereno
57.6 °F
Sembra 57.6 °F
N
0.0
Vento Variabile Vento da SSO
Gusts 0.0 mph

Oggi
Massima -- | Minima -- °F
--% Possibilità di precip.
Ieri
Massima -- | Minima -- °F
Precip. -- in
Pressione 30.11 in
Visibilità 10.0 miglia
Nuvole Sereno
Punto di rugiada 28 °F
Umidità 32%
Piovosità 0.00 in
Spessore del manto nevoso Non disponibile.
6:47 AM 8:12 PM
Gobba a levante, 49% visible
METAR KLCG 250555Z AUTO 00000KT 10SM CLR 13/13 A3011 RMK AO2 T01300125 10202 20129 402240129
Pressione 30.11 in
Visibilità 10.0 miglia
Nuvole Sereno
Punto di rugiada 28 °F
Umidità 32%
Piovosità 0.00 in
Spessore del manto nevoso Non disponibile.
6:47 AM 8:12 PM
Gobba a levante, 49% visible
METAR KLCG 250555Z AUTO 00000KT 10SM CLR 13/13 A3011 RMK AO2 T01300125 10202 20129 402240129

10-Day Weather Forecast

Almanac

Astronomia

Aug. 25, 2016 Alba Tramonto
Ora attuale
Crepuscolo civile
Crepuscolo nautico
Crepuscolo astronomico
Luna
Estensione della luce visibile
Lunghezza del giorno
Tomorrow will be .
, % of the Moon is Illuminated

Gli estremi di oggi

State Highs State Lows

Community

WunderPhotos

Upload Photos

1,934,799 foto caricate!

WunderBlog® & News

Nearby

Qualità dell'aria

  Qualità dell'aria Indice AQ Inquinante
Not available.

Profondità neve

Stazione Profondità Altitudine

Attività sismica

Città  Distanza Mag. Data & Ora
Minimo Magnitudo Mostrato è 2.5.

Temperature delle acque costiere

Località Temperatura

Stations

Stazioni meteo nelle vicinanze

Ubicazione della stazione Temp. Raffreddamento del vento Punto di rugiada Umidità Vento Precip. Alt. Aggiornato Tipo
                   

Watches & Warnings

There are currently no watches in effect.